createdAt,value
2023-06-16T00:03:07.384Z,19.42
2023-06-16T00:07:10.881Z,19.83
2023-06-16T00:11:13.917Z,19.15
2023-06-16T00:15:16.265Z,25.92
2023-06-16T00:19:18.802Z,19.17
2023-06-16T00:23:22.036Z,17.30
2023-06-16T00:27:24.483Z,18.88
2023-06-16T00:31:26.943Z,18.70
2023-06-16T00:35:29.134Z,24.42
2023-06-16T00:39:32.263Z,19.92
2023-06-16T00:43:34.610Z,18.67
2023-06-16T00:47:37.228Z,24.63
2023-06-16T00:51:40.300Z,26.98
2023-06-16T00:55:43.392Z,21.02
2023-06-16T00:59:46.484Z,23.63
2023-06-16T01:03:52.494Z,22.80
2023-06-16T01:08:17.779Z,23.73
2023-06-16T01:12:36.229Z,18.90
2023-06-16T01:16:42.397Z,22.05
2023-06-16T01:20:59.010Z,20.30
2023-06-16T01:25:04.571Z,19.08
2023-06-16T01:29:09.629Z,18.52
2023-06-16T01:33:16.531Z,24.52
2023-06-16T01:37:20.694Z,27.05
2023-06-16T01:41:22.945Z,23.05
2023-06-16T01:45:26.397Z,21.00
2023-06-16T01:49:29.227Z,25.45
2023-06-16T01:53:32.589Z,24.25
2023-06-16T01:57:36.368Z,26.92
2023-06-16T02:01:43.678Z,29.02
2023-06-16T02:05:50.419Z,28.77
2023-06-16T02:09:54.519Z,25.48
2023-06-16T02:13:56.813Z,24.48
2023-06-16T02:17:59.938Z,20.88
2023-06-16T02:22:02.164Z,20.48
2023-06-16T02:26:04.463Z,24.30
2023-06-16T02:30:07.542Z,24.65
2023-06-16T02:34:09.845Z,22.92
2023-06-16T02:38:12.240Z,21.85
2023-06-16T02:42:14.815Z,27.63
2023-06-16T02:46:17.106Z,24.95
2023-06-16T02:50:21.024Z,21.67
2023-06-16T02:54:24.210Z,23.58
2023-06-16T02:58:26.621Z,28.17
2023-06-16T03:02:29.220Z,26.77
2023-06-16T03:10:54.935Z,23.67
2023-06-16T03:15:02.346Z,27.17
2023-06-16T03:19:06.480Z,25.77
2023-06-16T03:23:08.833Z,26.85
2023-06-16T03:27:12.238Z,28.00
2023-06-16T03:31:36.956Z,23.48
2023-06-16T03:35:43.646Z,26.52
2023-06-16T03:39:56.970Z,26.50
2023-06-16T03:43:59.694Z,25.52
2023-06-16T03:48:04.023Z,27.10
2023-06-16T03:52:12.067Z,35.83
2023-06-16T03:56:14.474Z,41.58
2023-06-16T04:00:18.715Z,37.95
2023-06-16T04:04:28.179Z,38.15
2023-06-16T04:08:32.601Z,38.45
2023-06-16T04:12:36.396Z,51.10
2023-06-16T04:16:43.569Z,45.88
2023-06-16T04:20:48.332Z,44.03
2023-06-16T04:24:50.628Z,42.85
2023-06-16T04:28:57.043Z,53.60
2023-06-16T04:33:03.164Z,54.60
2023-06-16T04:37:10.859Z,46.55
2023-06-16T04:41:13.551Z,47.75
2023-06-16T04:45:16.845Z,46.83
2023-06-16T04:49:22.097Z,42.03
2023-06-16T04:53:24.889Z,39.85
2023-06-16T04:57:27.674Z,33.67
2023-06-16T05:01:29.737Z,41.40
2023-06-16T05:05:33.457Z,35.80
2023-06-16T05:09:36.188Z,35.17
2023-06-16T05:13:38.224Z,35.80
2023-06-16T05:17:40.940Z,33.83
2023-06-16T05:21:44.285Z,33.05
2023-06-16T05:25:46.892Z,32.67
2023-06-16T05:29:51.478Z,29.00
2023-06-16T05:33:56.928Z,34.88
2023-06-16T05:37:59.467Z,29.35
2023-06-16T05:42:01.685Z,28.55
2023-06-16T05:46:04.351Z,29.05
2023-06-16T05:50:07.144Z,31.52
2023-06-16T05:54:10.142Z,27.10
2023-06-16T05:58:13.358Z,24.75
2023-06-16T06:02:16.297Z,21.67
2023-06-16T06:06:20.130Z,15.30
2023-06-16T06:10:25.778Z,19.13
2023-06-16T06:14:29.814Z,15.30
2023-06-16T06:18:32.216Z,17.58
2023-06-16T06:22:35.919Z,14.50
2023-06-16T06:26:40.342Z,11.98
2023-06-16T06:30:42.623Z,18.25
2023-06-16T06:34:45.297Z,10.55
2023-06-16T06:38:48.835Z,10.57
2023-06-16T06:42:51.509Z,7.07
2023-06-16T06:47:05.685Z,7.63
2023-06-16T06:51:10.306Z,9.82
2023-06-16T06:55:12.472Z,10.05
2023-06-16T06:59:14.764Z,8.18
2023-06-16T07:03:17.007Z,8.18
2023-06-16T07:07:19.149Z,10.52
2023-06-16T07:11:21.388Z,13.75
2023-06-16T07:15:23.566Z,6.28
2023-06-16T07:19:27.458Z,9.18
2023-06-16T07:23:29.849Z,8.27
2023-06-16T07:27:31.959Z,10.27
2023-06-16T07:31:34.044Z,8.80
2023-06-16T07:35:36.107Z,11.73
2023-06-16T07:39:38.350Z,14.07
2023-06-16T07:43:40.624Z,10.63
2023-06-16T07:47:42.799Z,9.02
2023-06-16T07:51:45.013Z,15.25
2023-06-16T07:55:47.779Z,7.30
2023-06-16T07:59:49.948Z,7.47
2023-06-16T08:03:52.191Z,12.57
2023-06-16T08:07:54.519Z,6.47
2023-06-16T08:11:56.736Z,10.85
2023-06-16T08:15:59.059Z,13.55
2023-06-16T08:20:01.355Z,8.65
2023-06-16T08:24:03.650Z,7.32
2023-06-16T08:28:08.376Z,7.53
2023-06-16T08:32:11.750Z,8.85
2023-06-16T08:36:13.994Z,6.72
2023-06-16T08:40:17.083Z,9.10
2023-06-16T08:44:22.182Z,13.05
2023-06-16T08:48:24.288Z,8.18
2023-06-16T08:52:42.542Z,7.55
2023-06-16T08:56:48.935Z,11.85
2023-06-16T09:00:52.067Z,11.55
2023-06-16T09:04:54.926Z,12.05
2023-06-16T09:08:57.454Z,12.50
2023-06-16T09:13:03.533Z,10.85
2023-06-16T09:17:08.821Z,9.13
2023-06-16T09:21:10.965Z,13.13
2023-06-16T09:25:13.952Z,7.68
2023-06-16T09:29:25.908Z,8.63
2023-06-16T09:33:28.571Z,9.18
2023-06-16T09:37:30.885Z,9.27
2023-06-16T09:41:34.734Z,6.53
2023-06-16T09:45:37.534Z,8.90
2023-06-16T09:49:39.738Z,7.85
2023-06-16T09:53:42.724Z,5.93
2023-06-16T09:57:47.074Z,7.38
2023-06-16T10:01:49.446Z,10.95
2023-06-16T10:05:55.930Z,8.63
2023-06-16T10:10:19.027Z,6.57
2023-06-16T10:14:24.021Z,6.25
2023-06-16T10:18:26.714Z,7.57
2023-06-16T10:22:29.276Z,8.00
2023-06-16T10:26:31.591Z,9.63
2023-06-16T10:30:34.053Z,7.40
2023-06-16T10:34:36.521Z,7.32
2023-06-16T10:38:39.658Z,5.63
2023-06-16T10:42:42.593Z,7.78
2023-06-16T10:46:44.947Z,8.80
2023-06-16T10:51:00.332Z,6.13
2023-06-16T10:55:26.464Z,7.22
2023-06-16T10:59:29.774Z,5.50
2023-06-16T11:03:46.240Z,4.22
2023-06-16T11:08:07.386Z,4.30
2023-06-16T11:12:12.143Z,8.15
2023-06-16T11:16:14.612Z,7.53
2023-06-16T11:20:18.480Z,5.07
2023-06-16T11:24:21.185Z,9.57
2023-06-16T11:28:23.400Z,6.20
2023-06-16T11:32:27.730Z,7.13
2023-06-16T11:36:30.219Z,6.60
2023-06-16T11:40:32.465Z,7.30
2023-06-16T11:44:34.682Z,6.70
2023-06-16T11:48:38.958Z,6.88
2023-06-16T11:52:41.406Z,4.55
2023-06-16T11:56:43.751Z,5.55
2023-06-16T12:00:47.591Z,7.97
2023-06-16T12:04:50.028Z,8.70
2023-06-16T12:08:55.810Z,6.10
2023-06-16T12:12:58.340Z,7.07
2023-06-16T12:17:00.985Z,6.95
2023-06-16T12:21:23.246Z,7.30
2023-06-16T12:25:28.175Z,10.52
2023-06-16T12:29:32.880Z,4.85
2023-06-16T12:33:37.582Z,10.32
2023-06-16T12:37:45.310Z,8.63
2023-06-16T12:42:02.395Z,10.77
2023-06-16T12:46:05.054Z,6.18
2023-06-16T12:50:07.871Z,7.30
2023-06-16T12:54:13.281Z,5.82
2023-06-16T12:58:16.004Z,7.47
2023-06-16T13:02:19.166Z,6.55
2023-06-16T13:06:21.312Z,7.32
2023-06-16T13:10:23.698Z,10.05
2023-06-16T13:14:27.399Z,6.93
2023-06-16T13:18:29.689Z,8.48
2023-06-16T13:22:32.505Z,9.40
2023-06-16T13:26:35.045Z,13.45
2023-06-16T13:30:37.924Z,8.90
2023-06-16T13:34:40.218Z,11.48
2023-06-16T13:38:43.865Z,9.38
2023-06-16T13:42:46.109Z,7.30
2023-06-16T13:46:50.071Z,8.77
2023-06-16T13:50:52.600Z,8.57
2023-06-16T13:54:55.170Z,9.23
2023-06-16T13:58:57.776Z,8.23
2023-06-16T14:03:00.245Z,9.85
2023-06-16T14:07:03.425Z,7.60
2023-06-16T14:11:05.726Z,7.75
2023-06-16T14:15:08.609Z,6.90
2023-06-16T14:19:11.017Z,8.40
2023-06-16T14:23:14.804Z,7.28
2023-06-16T14:27:17.257Z,6.72
2023-06-16T14:31:20.930Z,7.40
2023-06-16T14:35:23.888Z,6.80
2023-06-16T14:39:26.278Z,9.18
2023-06-16T14:43:28.724Z,8.98
2023-06-16T14:47:31.466Z,8.55
2023-06-16T14:51:37.979Z,8.85
2023-06-16T14:55:40.674Z,8.43
2023-06-16T14:59:44.334Z,6.53
2023-06-16T15:03:47.316Z,7.13
2023-06-16T15:07:49.713Z,5.28
2023-06-16T15:11:52.537Z,7.55
2023-06-16T15:15:54.954Z,6.55
2023-06-16T15:19:57.399Z,6.47
2023-06-16T15:24:01.089Z,6.95
2023-06-16T15:28:12.138Z,6.72
2023-06-16T15:32:15.798Z,8.40
2023-06-16T15:36:19.282Z,10.25
2023-06-16T15:40:22.226Z,8.93
2023-06-16T15:44:24.968Z,9.10
2023-06-16T15:48:27.127Z,9.52
2023-06-16T15:52:29.852Z,7.25
2023-06-16T15:56:32.503Z,7.82
2023-06-16T16:00:35.120Z,7.75
2023-06-16T16:04:37.591Z,6.20
2023-06-16T16:08:40.096Z,6.50
2023-06-16T16:12:42.828Z,9.20
2023-06-16T16:16:45.892Z,8.85
2023-06-16T16:20:49.800Z,11.55
2023-06-16T16:24:53.101Z,9.07
2023-06-16T16:28:56.010Z,8.07
2023-06-16T16:32:58.609Z,7.32
2023-06-16T16:37:02.800Z,8.23
2023-06-16T16:41:05.183Z,11.45
2023-06-16T16:45:08.415Z,8.25
2023-06-16T16:49:10.778Z,9.52
2023-06-16T16:53:14.156Z,10.15
2023-06-16T16:57:16.689Z,8.15
2023-06-16T17:01:19.569Z,9.98
2023-06-16T17:05:22.385Z,9.25
2023-06-16T17:09:24.953Z,8.40
2023-06-16T17:13:27.230Z,8.32
2023-06-16T17:17:29.718Z,8.98
2023-06-16T17:21:32.100Z,10.32
2023-06-16T17:25:35.858Z,13.27
2023-06-16T17:29:38.289Z,8.88
2023-06-16T17:33:40.730Z,9.88
2023-06-16T17:37:46.801Z,11.88
2023-06-16T17:41:49.214Z,9.32
2023-06-16T17:45:51.716Z,12.93
2023-06-16T17:49:54.462Z,10.07
2023-06-16T17:53:56.777Z,13.65
2023-06-16T17:57:59.346Z,13.85
2023-06-16T18:02:02.203Z,10.60
2023-06-16T18:06:04.720Z,11.07
2023-06-16T18:10:07.820Z,10.95
2023-06-16T18:14:10.307Z,15.65
2023-06-16T18:18:12.719Z,14.07
2023-06-16T18:22:15.180Z,10.85
2023-06-16T18:26:18.181Z,14.85
2023-06-16T18:30:20.917Z,12.35
2023-06-16T18:34:27.779Z,10.43
2023-06-16T18:38:30.133Z,13.88
2023-06-16T18:42:32.623Z,12.25
2023-06-16T18:46:36.911Z,11.55
2023-06-16T18:50:39.333Z,14.82
2023-06-16T18:54:41.682Z,11.68
2023-06-16T18:58:44.090Z,18.20
2023-06-16T19:02:46.411Z,15.30
2023-06-16T19:06:48.663Z,14.65
2023-06-16T19:10:51.439Z,19.98
2023-06-16T19:14:53.551Z,12.07
2023-06-16T19:18:55.830Z,13.45
2023-06-16T19:22:58.359Z,14.05
2023-06-16T19:27:01.947Z,13.23
2023-06-16T19:31:04.382Z,13.70
2023-06-16T19:35:07.483Z,18.67
2023-06-16T19:39:10.045Z,15.25
2023-06-16T19:43:12.456Z,15.40
2023-06-16T19:47:16.908Z,15.25
2023-06-16T19:51:19.603Z,14.52
2023-06-16T19:55:22.011Z,26.52
2023-06-16T19:59:24.617Z,17.17
2023-06-16T20:03:27.257Z,17.45
2023-06-16T20:07:31.949Z,14.27
2023-06-16T20:11:35.953Z,14.35
2023-06-16T20:15:38.748Z,16.30
2023-06-16T20:19:42.580Z,15.75
2023-06-16T20:23:45.157Z,15.27
2023-06-16T20:27:52.235Z,15.60
2023-06-16T20:31:54.626Z,14.65
2023-06-16T20:35:57.317Z,17.67
2023-06-16T20:39:59.702Z,18.10
2023-06-16T20:44:02.382Z,20.48
2023-06-16T20:48:05.043Z,18.83
2023-06-16T20:52:11.632Z,22.83
2023-06-16T20:56:14.233Z,19.13
2023-06-16T21:00:22.651Z,18.67
2023-06-16T21:04:25.561Z,21.75
2023-06-16T21:08:33.743Z,20.15
2023-06-16T21:12:36.936Z,19.85
2023-06-16T21:16:39.401Z,20.77
2023-06-16T21:20:41.840Z,22.05
2023-06-16T21:24:43.990Z,23.25
2023-06-16T21:28:46.199Z,26.42
2023-06-16T21:32:48.490Z,24.95
2023-06-16T21:36:51.859Z,24.30
2023-06-16T21:40:54.066Z,25.50
2023-06-16T21:44:56.345Z,27.80
2023-06-16T21:48:58.519Z,26.45
2023-06-16T21:53:01.197Z,25.20
2023-06-16T21:57:03.597Z,31.52
2023-06-16T22:01:05.905Z,29.25
2023-06-16T22:05:10.347Z,28.58
2023-06-16T22:09:12.763Z,34.40
2023-06-16T22:13:15.206Z,32.05
2023-06-16T22:17:18.318Z,32.97
2023-06-16T22:21:20.830Z,39.22
2023-06-16T22:25:23.426Z,38.25
2023-06-16T22:29:25.996Z,35.85
2023-06-16T22:33:28.486Z,33.70
2023-06-16T22:37:30.643Z,38.47
2023-06-16T22:41:32.952Z,35.85
2023-06-16T22:45:35.328Z,40.28
2023-06-16T22:49:37.517Z,40.58
2023-06-16T22:53:39.687Z,39.55
2023-06-16T22:57:42.189Z,42.88
2023-06-16T23:01:44.485Z,41.47
2023-06-16T23:05:46.596Z,46.13
2023-06-16T23:09:48.706Z,41.35
2023-06-16T23:13:51.007Z,43.88
2023-06-16T23:17:53.296Z,40.97
2023-06-16T23:21:56.656Z,44.47
2023-06-16T23:26:02.740Z,45.22
2023-06-16T23:30:06.033Z,42.88
2023-06-16T23:34:08.175Z,39.08
2023-06-16T23:38:10.361Z,35.15
2023-06-16T23:42:13.170Z,38.00
2023-06-16T23:46:15.653Z,39.95
2023-06-16T23:50:18.158Z,38.40
2023-06-16T23:54:24.006Z,35.90
2023-06-16T23:58:28.620Z,38.03
